Glen Robbins, Ohio
Current Conditions -  °F | °C
As of 8:53 AM on Friday 28 Nov 2014 (Local Time) from KHLG Reporting Station
Broken Clouds Broken Clouds  
Wind Chill: 16°   Ceiling: 4300
Heat Index: 23°   Visibility: 10mi
Dew Point: 12°   Wind: 6mph
Humidity: 63%   Direction: 300°WNW
Pressure: 30.34"   Gusts: NA
Location:  40.2229°N, 80.7179°W
Report Text: KHLG 281353Z 30005KT 10SM BKN043 M05/M11 A3034 RMK AO2 SLP292 T10501111
Loading
Personal Weather Stations






























Interactive Weather Map New forecast layout! Learn more

10-Day Weather Forecast

Advertisements
Track Severe Weather on mobile